Bg Felixstowe — V2BR7 — position and weather

sailwx.info

Track history (hours):
 
Tides and Currents Weather Stations Pressure Air Temp Water Temp Dewpoint Dewpoint Depression Visibility Wind Speed Wind Dir Waves Ship Positions

Bg Felixstowe

Last reported at 2016-Feb-08 15:31 UTC. Time now 2016-Feb-14 12:36 UTC.
Position N 25°18' W 080°02'.

Length 139 m; draft 6.6 m.

Type: Ship. MMSI: 304906000.

Date/timePositionNaut miles runAvg speedWind from/ knotsBaromVisibWave heightAir tempDewpointWater temp
2016-Feb-08 15:31N 25°18' W 080°02'1717.2
2016-Feb-08 14:33N 25°35' W 080°00'1413.9
2016-Feb-08 13:33N 25°48' W 080°05'0 0.1
2016-Feb-08 12:33N 25°48' W 080°05'3 3.3
2016-Feb-08 11:33N 25°46' W 080°08'2 1.9
2016-Feb-08 10:31N 25°46' W 080°10'0 0.0
2016-Feb-08 09:31N 25°46' W 080°10'0 0.0
2016-Feb-08 08:33N 25°46' W 080°10'0 0.0
2016-Feb-08 07:33N 25°46' W 080°10'0 0.0
2016-Feb-08 06:32N 25°46' W 080°10'0 0.0
2016-Feb-08 05:32N 25°46' W 080°10'0 0.0
2016-Feb-08 04:31N 25°46' W 080°10'0 0.0
2016-Feb-08 03:31N 25°46' W 080°10'0 0.0
2016-Feb-08 02:31N 25°46' W 080°10'0 0.0
2016-Feb-08 01:33N 25°46' W 080°10'0 0.0
2016-Feb-08 00:33N 25°46' W 080°10'0 0.0
2016-Feb-07 23:32N 25°46' W 080°10'0 0.0
2016-Feb-07 22:32N 25°46' W 080°10'0 0.0
2016-Feb-07 21:31N 25°46' W 080°10'0 0.0
2016-Feb-07 20:31N 25°46' W 080°10'0 0.0
2016-Feb-07 19:33N 25°46' W 080°10'8 8.0
2016-Feb-07 18:34N 25°44' W 080°02'1717.0
2016-Feb-07 17:33N 25°27' W 080°00'  
2016-Feb-02 03:32N 25°25' W 079°41'1211.9
2016-Feb-02 02:33N 25°36' W 079°47'1515.2
2016-Feb-02 01:34N 25°45' W 080°01'9 8.8
2016-Feb-02 00:33N 25°46' W 080°11'0 0.1
2016-Feb-01 23:33N 25°46' W 080°10'0 0.0
2016-Feb-01 22:33N 25°46' W 080°10'0 0.0
2016-Feb-01 21:33N 25°46' W 080°10'0 0.0
2016-Feb-01 20:32N 25°46' W 080°10'0 0.0
2016-Feb-01 19:33N 25°46' W 080°10'0 0.0
2016-Feb-01 18:31N 25°46' W 080°10'0 0.0
2016-Feb-01 17:31N 25°46' W 080°10'0 0.0
2016-Feb-01 16:33N 25°46' W 080°10'0 0.0
2016-Feb-01 15:33N 25°46' W 080°10'0 0.0
2016-Feb-01 14:32N 25°46' W 080°10'0 0.0
2016-Feb-01 13:32N 25°46' W 080°10'0 0.0
2016-Feb-01 12:32N 25°46' W 080°10'0 0.0
2016-Feb-01 11:31N 25°46' W 080°10'0 0.0
2016-Feb-01 10:31N 25°46' W 080°10'0 0.0
2016-Feb-01 09:33N 25°46' W 080°10'0 0.0
2016-Feb-01 08:33N 25°46' W 080°10'0 0.0
2016-Feb-01 07:32N 25°46' W 080°10'0 0.0
2016-Feb-01 06:32N 25°46' W 080°10'0 0.0
2016-Feb-01 05:32N 25°46' W 080°10'0 0.0
2016-Feb-01 04:31N 25°46' W 080°10'0 0.0
2016-Feb-01 03:31N 25°46' W 080°10'0 0.0
2016-Feb-01 02:33N 25°46' W 080°10'0 0.0
2016-Feb-01 01:33N 25°46' W 080°10'0 0.0
2016-Feb-01 00:32N 25°46' W 080°10'0 0.0
2016-Jan-31 23:32N 25°46' W 080°10'0 0.0
2016-Jan-31 22:32N 25°46' W 080°10'0 0.0
2016-Jan-31 21:33N 25°46' W 080°10'7 7.2
2016-Jan-31 20:33N 25°43' W 080°03'1817.5
2016-Jan-31 19:33N 25°26' W 080°00'  
Track history (hours):
 
Tides and Currents Weather Stations Pressure Air Temp Water Temp Dewpoint Dewpoint Depression Visibility Wind Speed Wind Dir Waves Ship Positions

Bg Felixstowe

Last reported at 2016-Feb-08 15:31 UTC. Time now 2016-Feb-14 12:36 UTC.
Position N 25°18' W 080°02'.

Length 139 m; draft 6.6 m.

Type: Ship. MMSI: 304906000.

Date/timePositionNaut miles runAvg speedWind from/ knotsBaromVisibWave heightAir tempDewpointWater temp
2016-Feb-08 15:31N 25°18' W 080°02'1717.2
2016-Feb-08 14:33N 25°35' W 080°00'1413.9
2016-Feb-08 13:33N 25°48' W 080°05'0 0.1
2016-Feb-08 12:33N 25°48' W 080°05'3 3.3
2016-Feb-08 11:33N 25°46' W 080°08'2 1.9
2016-Feb-08 10:31N 25°46' W 080°10'0 0.0
2016-Feb-08 09:31N 25°46' W 080°10'0 0.0
2016-Feb-08 08:33N 25°46' W 080°10'0 0.0
2016-Feb-08 07:33N 25°46' W 080°10'0 0.0
2016-Feb-08 06:32N 25°46' W 080°10'0 0.0
2016-Feb-08 05:32N 25°46' W 080°10'0 0.0
2016-Feb-08 04:31N 25°46' W 080°10'0 0.0
2016-Feb-08 03:31N 25°46' W 080°10'0 0.0
2016-Feb-08 02:31N 25°46' W 080°10'0 0.0
2016-Feb-08 01:33N 25°46' W 080°10'0 0.0
2016-Feb-08 00:33N 25°46' W 080°10'0 0.0
2016-Feb-07 23:32N 25°46' W 080°10'0 0.0
2016-Feb-07 22:32N 25°46' W 080°10'0 0.0
2016-Feb-07 21:31N 25°46' W 080°10'0 0.0
2016-Feb-07 20:31N 25°46' W 080°10'0 0.0
2016-Feb-07 19:33N 25°46' W 080°10'8 8.0
2016-Feb-07 18:34N 25°44' W 080°02'1717.0
2016-Feb-07 17:33N 25°27' W 080°00'  
2016-Feb-02 03:32N 25°25' W 079°41'1211.9
2016-Feb-02 02:33N 25°36' W 079°47'1515.2
2016-Feb-02 01:34N 25°45' W 080°01'9 8.8
2016-Feb-02 00:33N 25°46' W 080°11'0 0.1
2016-Feb-01 23:33N 25°46' W 080°10'0 0.0
2016-Feb-01 22:33N 25°46' W 080°10'0 0.0
2016-Feb-01 21:33N 25°46' W 080°10'0 0.0
2016-Feb-01 20:32N 25°46' W 080°10'0 0.0
2016-Feb-01 19:33N 25°46' W 080°10'0 0.0
2016-Feb-01 18:31N 25°46' W 080°10'0 0.0
2016-Feb-01 17:31N 25°46' W 080°10'0 0.0
2016-Feb-01 16:33N 25°46' W 080°10'0 0.0
2016-Feb-01 15:33N 25°46' W 080°10'0 0.0
2016-Feb-01 14:32N 25°46' W 080°10'0 0.0
2016-Feb-01 13:32N 25°46' W 080°10'0 0.0
2016-Feb-01 12:32N 25°46' W 080°10'0 0.0
2016-Feb-01 11:31N 25°46' W 080°10'0 0.0
2016-Feb-01 10:31N 25°46' W 080°10'0 0.0
2016-Feb-01 09:33N 25°46' W 080°10'0 0.0
2016-Feb-01 08:33N 25°46' W 080°10'0 0.0
2016-Feb-01 07:32N 25°46' W 080°10'0 0.0
2016-Feb-01 06:32N 25°46' W 080°10'0 0.0
2016-Feb-01 05:32N 25°46' W 080°10'0 0.0
2016-Feb-01 04:31N 25°46' W 080°10'0 0.0
2016-Feb-01 03:31N 25°46' W 080°10'0 0.0
2016-Feb-01 02:33N 25°46' W 080°10'0 0.0
2016-Feb-01 01:33N 25°46' W 080°10'0 0.0
2016-Feb-01 00:32N 25°46' W 080°10'0 0.0
2016-Jan-31 23:32N 25°46' W 080°10'0 0.0
2016-Jan-31 22:32N 25°46' W 080°10'0 0.0
2016-Jan-31 21:33N 25°46' W 080°10'7 7.2
2016-Jan-31 20:33N 25°43' W 080°03'1817.5
2016-Jan-31 19:33N 25°26' W 080°00'  

Dump ship's entire track history